createdAt,value
2018-06-05T00:00:22.535Z,23.00
2018-06-05T00:02:51.144Z,22.90
2018-06-05T00:05:19.891Z,22.90
2018-06-05T00:07:48.781Z,22.90
2018-06-05T00:10:17.301Z,22.90
2018-06-05T00:12:45.950Z,22.90
2018-06-05T00:15:14.468Z,22.90
2018-06-05T00:20:11.432Z,22.80
2018-06-05T00:22:39.911Z,22.80
2018-06-05T00:25:08.392Z,22.80
2018-06-05T00:27:36.977Z,22.80
2018-06-05T00:30:05.562Z,22.70
2018-06-05T00:32:34.309Z,22.70
2018-06-05T00:35:02.726Z,22.70
2018-06-05T00:37:31.208Z,22.70
2018-06-05T00:39:59.997Z,22.70
2018-06-05T00:42:28.478Z,22.60
2018-06-05T00:44:56.965Z,22.60
2018-06-05T00:47:25.441Z,22.50
2018-06-05T00:49:53.818Z,22.50
2018-06-05T00:52:22.198Z,22.50
2018-06-05T00:54:50.576Z,22.40
2018-06-05T00:57:19.057Z,22.40
2018-06-05T00:59:47.539Z,22.50
2018-06-05T01:02:16.021Z,22.40
2018-06-05T01:04:45.320Z,22.40
2018-06-05T01:07:13.699Z,22.40
2018-06-05T01:09:42.283Z,22.30
2018-06-05T01:12:10.764Z,22.30
2018-06-05T01:14:39.001Z,22.20
2018-06-05T01:17:07.285Z,22.20
2018-06-05T01:19:35.524Z,22.20
2018-06-05T01:22:03.783Z,22.20
2018-06-05T01:24:32.033Z,22.10
2018-06-05T01:27:00.304Z,22.10
2018-06-05T01:29:28.682Z,22.10
2018-06-05T01:31:56.984Z,22.00
2018-06-05T01:34:25.241Z,22.00
2018-06-05T01:36:53.560Z,21.90
2018-06-05T01:39:21.811Z,22.00
2018-06-05T01:41:50.084Z,21.90
2018-06-05T01:44:18.433Z,21.90
2018-06-05T01:46:46.691Z,21.90
2018-06-05T01:49:14.947Z,21.90
2018-06-05T01:51:43.924Z,21.80
2018-06-05T01:54:12.168Z,21.80
2018-06-05T01:56:40.448Z,21.80
2018-06-05T01:59:08.709Z,21.70
2018-06-05T02:01:37.017Z,21.70
2018-06-05T02:04:05.262Z,21.70
2018-06-05T02:06:33.519Z,21.70
2018-06-05T02:09:01.756Z,21.70
2018-06-05T02:11:30.168Z,21.60
2018-06-05T02:13:58.494Z,21.60
2018-06-05T02:16:26.846Z,21.60
2018-06-05T02:18:55.167Z,21.50
2018-06-05T02:21:23.408Z,21.50
2018-06-05T02:26:19.514Z,21.50
2018-06-05T02:28:47.822Z,21.50
2018-06-05T02:31:16.064Z,21.50
2018-06-05T02:33:44.332Z,21.40
2018-06-05T02:36:12.583Z,21.40
2018-06-05T02:38:40.899Z,21.40
2018-06-05T02:41:09.133Z,21.40
2018-06-05T02:43:37.390Z,21.40
2018-06-05T02:46:05.644Z,21.30
2018-06-05T02:48:33.875Z,21.30
2018-06-05T02:51:02.144Z,21.30
2018-06-05T02:53:30.405Z,21.20
2018-06-05T02:55:58.827Z,21.20
2018-06-05T02:58:27.080Z,21.20
2018-06-05T03:00:55.345Z,21.20
2018-06-05T03:03:23.613Z,21.20
2018-06-05T03:05:51.859Z,21.10
2018-06-05T03:08:20.221Z,21.10
2018-06-05T03:10:48.446Z,21.10
2018-06-05T03:15:44.562Z,21.10
2018-06-05T03:18:12.917Z,21.10
2018-06-05T03:20:41.155Z,21.10
2018-06-05T03:23:09.424Z,21.10
2018-06-05T03:28:05.579Z,21.10
2018-06-05T03:30:33.839Z,21.00
2018-06-05T03:33:02.103Z,21.00
2018-06-05T03:35:30.336Z,21.00
2018-06-05T03:37:58.643Z,21.00
2018-06-05T03:40:26.883Z,21.00
2018-06-05T03:42:55.132Z,21.00
2018-06-05T03:45:23.456Z,21.00
2018-06-05T03:47:51.717Z,21.00
2018-06-05T03:50:20.025Z,21.00
2018-06-05T03:52:48.272Z,21.00
2018-06-05T03:55:16.519Z,21.00
2018-06-05T03:57:44.789Z,21.00
2018-06-05T04:00:13.022Z,21.00
2018-06-05T04:02:41.273Z,21.00
2018-06-05T04:05:09.504Z,21.10
2018-06-05T04:07:37.757Z,21.00
2018-06-05T04:10:05.998Z,21.00
2018-06-05T04:12:34.247Z,21.00
2018-06-05T04:15:02.517Z,21.00
2018-06-05T04:17:30.757Z,21.10
2018-06-05T04:19:59.012Z,21.10
2018-06-05T04:22:27.256Z,21.10
2018-06-05T04:24:55.531Z,21.10
2018-06-05T04:27:23.778Z,21.10
2018-06-05T04:29:52.276Z,21.20
2018-06-05T04:32:20.551Z,21.20
2018-06-05T04:34:48.897Z,21.20
2018-06-05T04:37:17.135Z,21.20
2018-06-05T04:39:45.383Z,21.20
2018-06-05T04:42:13.742Z,21.30
2018-06-05T04:44:42.758Z,21.30
2018-06-05T04:47:11.412Z,21.40
2018-06-05T04:49:39.694Z,21.50
2018-06-05T04:52:07.930Z,21.60
2018-06-05T04:54:36.174Z,21.80
2018-06-05T04:57:04.441Z,21.90
2018-06-05T04:59:32.708Z,22.00
2018-06-05T05:02:01.128Z,22.10
2018-06-05T05:04:29.354Z,22.30
2018-06-05T05:09:25.560Z,22.50
2018-06-05T05:11:53.766Z,22.70
2018-06-05T05:14:22.018Z,22.90
2018-06-05T05:16:50.479Z,23.10
2018-06-05T05:19:18.862Z,23.30
2018-06-05T05:21:47.138Z,23.50
2018-06-05T05:24:15.395Z,23.80
2018-06-05T05:26:43.637Z,24.10
2018-06-05T05:29:11.910Z,24.30
2018-06-05T05:31:40.218Z,24.50
2018-06-05T05:34:08.497Z,24.70
2018-06-05T05:36:36.865Z,24.90
2018-06-05T05:39:06.482Z,25.10
2018-06-05T05:41:34.726Z,25.20
2018-06-05T05:44:03.029Z,25.40
2018-06-05T05:46:31.273Z,25.40
2018-06-05T05:48:59.566Z,25.40
2018-06-05T05:51:27.768Z,25.50
2018-06-05T05:53:56.151Z,25.40
2018-06-05T05:56:24.787Z,25.50
2018-06-05T06:01:21.037Z,25.40
2018-06-05T06:03:49.526Z,25.40
2018-06-05T06:06:17.837Z,25.40
2018-06-05T06:08:46.232Z,25.40
2018-06-05T06:11:14.615Z,25.40
2018-06-05T06:13:42.983Z,25.30
2018-06-05T06:16:11.299Z,25.20
2018-06-05T06:18:39.663Z,25.20
2018-06-05T06:21:07.900Z,25.20
2018-06-05T06:23:36.172Z,25.30
2018-06-05T06:28:32.446Z,25.50
2018-06-05T06:31:00.700Z,25.80
2018-06-05T06:33:28.924Z,26.00
2018-06-05T06:35:57.214Z,26.30
2018-06-05T06:38:25.459Z,26.40
2018-06-05T06:40:53.787Z,26.50
2018-06-05T06:43:22.060Z,26.50
2018-06-05T06:45:50.313Z,26.50
2018-06-05T06:48:18.556Z,26.30
2018-06-05T06:50:46.794Z,26.20
2018-06-05T06:53:15.040Z,25.90
2018-06-05T06:55:43.282Z,25.90
2018-06-05T06:58:11.606Z,25.70
2018-06-05T07:00:39.863Z,25.70
2018-06-05T07:03:08.116Z,25.60
2018-06-05T07:05:37.312Z,25.50
2018-06-05T07:08:05.738Z,25.50
2018-06-05T07:10:33.989Z,25.50
2018-06-05T07:13:02.226Z,25.50
2018-06-05T07:15:30.476Z,25.50
2018-06-05T07:17:58.714Z,25.50
2018-06-05T07:20:27.893Z,25.70
2018-06-05T07:22:56.171Z,25.70
2018-06-05T07:25:24.474Z,25.70
2018-06-05T07:27:52.770Z,25.80
2018-06-05T07:30:21.087Z,25.80
2018-06-05T07:32:49.531Z,25.70
2018-06-05T07:35:17.831Z,25.80
2018-06-05T07:37:46.077Z,25.90
2018-06-05T07:40:14.404Z,26.10
2018-06-05T07:42:42.663Z,26.30
2018-06-05T07:45:10.973Z,26.60
2018-06-05T07:47:39.249Z,27.00
2018-06-05T07:50:07.578Z,27.50
2018-06-05T07:52:35.859Z,27.90
2018-06-05T07:55:04.123Z,28.50
2018-06-05T07:57:32.371Z,29.00
2018-06-05T08:00:00.616Z,29.40
2018-06-05T08:02:28.847Z,29.70
2018-06-05T08:07:24.969Z,30.50
2018-06-05T08:09:53.254Z,30.90
2018-06-05T08:12:21.620Z,31.00
2018-06-05T08:14:50.067Z,31.20
2018-06-05T08:17:18.317Z,31.30
2018-06-05T08:19:46.655Z,31.40
2018-06-05T08:22:14.894Z,31.70
2018-06-05T08:24:43.183Z,31.90
2018-06-05T08:27:11.427Z,32.00
2018-06-05T08:29:39.775Z,31.90
2018-06-05T08:32:13.489Z,31.60
2018-06-05T08:34:41.750Z,31.70
2018-06-05T08:37:10.017Z,31.70
2018-06-05T08:39:38.295Z,31.80
2018-06-05T08:42:06.535Z,31.70
2018-06-05T08:44:34.884Z,31.80
2018-06-05T08:47:03.167Z,31.90
2018-06-05T08:49:31.421Z,31.90
2018-06-05T08:51:59.940Z,32.00
2018-06-05T08:54:28.194Z,32.10
2018-06-05T08:56:56.485Z,32.10
2018-06-05T08:59:25.396Z,32.00
2018-06-05T09:01:54.197Z,31.80
2018-06-05T09:04:23.102Z,31.80
2018-06-05T09:06:51.645Z,31.60
2018-06-05T09:09:20.689Z,31.20
2018-06-05T09:11:50.189Z,31.00
2018-06-05T09:14:19.084Z,30.70
2018-06-05T09:16:47.366Z,30.60
2018-06-05T09:19:15.605Z,30.50
2018-06-05T09:21:43.900Z,30.40
2018-06-05T09:24:12.138Z,30.40
2018-06-05T09:26:40.388Z,30.50
2018-06-05T09:29:08.641Z,30.50
2018-06-05T09:31:36.883Z,30.30
2018-06-05T09:34:05.164Z,30.30
2018-06-05T09:36:33.452Z,30.40
2018-06-05T09:39:01.748Z,30.10
2018-06-05T09:41:29.997Z,30.00
2018-06-05T09:43:58.237Z,30.20
2018-06-05T09:46:26.617Z,30.20
2018-06-05T09:48:54.855Z,30.30
2018-06-05T09:51:23.176Z,30.50
2018-06-05T09:53:51.432Z,30.50
2018-06-05T09:56:19.768Z,30.60
2018-06-05T09:58:48.020Z,30.50
2018-06-05T10:01:16.323Z,30.50
2018-06-05T10:03:44.586Z,30.50
2018-06-05T10:06:12.844Z,30.50
2018-06-05T10:08:41.098Z,30.50
2018-06-05T10:11:09.430Z,30.60
2018-06-05T10:13:37.660Z,30.80
2018-06-05T10:16:05.915Z,31.00
2018-06-05T10:18:34.164Z,31.30
2018-06-05T10:21:02.436Z,31.50
2018-06-05T10:23:30.675Z,31.60
2018-06-05T10:25:59.006Z,31.80
2018-06-05T10:28:27.263Z,32.20
2018-06-05T10:30:55.523Z,32.50
2018-06-05T10:33:23.788Z,32.70
2018-06-05T10:35:52.028Z,32.90
2018-06-05T10:38:20.256Z,33.30
2018-06-05T10:40:48.506Z,33.50
2018-06-05T10:43:16.844Z,34.00
2018-06-05T10:45:45.109Z,34.30
2018-06-05T10:48:13.335Z,34.90
2018-06-05T10:50:42.053Z,35.20
2018-06-05T10:53:10.385Z,35.70
2018-06-05T10:55:38.630Z,35.70
2018-06-05T10:58:06.870Z,35.40
2018-06-05T11:00:35.128Z,35.40
2018-06-05T11:03:03.404Z,35.70
2018-06-05T11:05:31.653Z,35.60
2018-06-05T11:10:27.914Z,36.30
2018-06-05T11:12:56.156Z,36.50
2018-06-05T11:15:24.440Z,36.40
2018-06-05T11:17:52.772Z,36.70
2018-06-05T11:20:21.020Z,37.10
2018-06-05T11:25:17.136Z,37.00
2018-06-05T11:27:45.402Z,36.40
2018-06-05T11:30:13.659Z,35.70
2018-06-05T11:32:42.458Z,35.60
2018-06-05T11:35:10.668Z,35.90
2018-06-05T11:37:38.933Z,35.70
2018-06-05T11:40:07.198Z,35.20
2018-06-05T11:42:35.440Z,35.00
2018-06-05T11:45:03.786Z,35.00
2018-06-05T11:47:32.045Z,34.80
2018-06-05T11:50:00.276Z,34.60
2018-06-05T11:52:28.539Z,34.20
2018-06-05T11:54:56.791Z,33.80
2018-06-05T11:57:25.983Z,33.00
2018-06-05T11:59:55.311Z,32.20
2018-06-05T12:02:24.562Z,31.70
2018-06-05T12:07:20.833Z,31.40
2018-06-05T12:09:49.081Z,31.30
2018-06-05T12:12:17.431Z,31.00
2018-06-05T12:14:45.770Z,30.80
2018-06-05T12:17:14.936Z,30.60
2018-06-05T12:19:43.218Z,30.50
2018-06-05T12:22:11.462Z,30.40
2018-06-05T12:24:39.721Z,30.20
2018-06-05T12:27:07.975Z,30.10
2018-06-05T12:32:04.116Z,30.00
2018-06-05T12:34:32.376Z,30.10
2018-06-05T12:37:01.327Z,30.10
2018-06-05T12:39:29.604Z,30.10
2018-06-05T12:41:57.903Z,30.10
2018-06-05T12:44:26.183Z,30.10
2018-06-05T12:46:54.600Z,30.30
2018-06-05T12:49:22.863Z,30.50
2018-06-05T12:51:51.119Z,30.90
2018-06-05T12:54:19.434Z,31.20
2018-06-05T12:56:48.371Z,31.50
2018-06-05T12:59:17.753Z,31.80
2018-06-05T13:01:47.182Z,31.70
2018-06-05T13:04:15.469Z,31.70
2018-06-05T13:06:43.777Z,31.60
2018-06-05T13:09:12.015Z,31.30
2018-06-05T13:11:40.282Z,31.00
2018-06-05T13:14:08.568Z,30.60
2018-06-05T13:16:36.829Z,30.40
2018-06-05T13:19:05.091Z,30.30
2018-06-05T13:21:33.350Z,30.10
2018-06-05T13:24:01.608Z,29.90
2018-06-05T13:28:57.770Z,29.60
2018-06-05T13:31:26.033Z,29.60
2018-06-05T13:33:54.299Z,29.50
2018-06-05T13:36:22.601Z,29.50
2018-06-05T13:38:50.872Z,29.50
2018-06-05T13:41:19.150Z,29.40
2018-06-05T13:43:47.458Z,29.30
2018-06-05T13:46:15.673Z,29.20
2018-06-05T13:48:43.990Z,29.10
2018-06-05T13:51:12.316Z,29.00
2018-06-05T13:53:40.569Z,28.90
2018-06-05T13:56:08.911Z,28.90
2018-06-05T13:58:37.172Z,28.90
2018-06-05T14:01:05.594Z,28.90
2018-06-05T14:03:33.852Z,28.90
2018-06-05T14:06:02.098Z,28.90
2018-06-05T14:08:30.609Z,29.00
2018-06-05T14:10:58.838Z,28.90
2018-06-05T14:13:27.125Z,28.90
2018-06-05T14:18:23.380Z,28.80
2018-06-05T14:23:20.134Z,28.80
2018-06-05T14:25:48.403Z,28.70
2018-06-05T14:28:16.694Z,28.70
2018-06-05T14:30:45.065Z,28.60
2018-06-05T14:33:13.432Z,28.60
2018-06-05T14:35:41.752Z,28.60
2018-06-05T14:38:10.084Z,28.50
2018-06-05T14:40:38.414Z,28.60
2018-06-05T14:43:06.761Z,28.50
2018-06-05T14:45:35.148Z,28.50
2018-06-05T14:48:03.581Z,28.40
2018-06-05T14:50:31.964Z,28.30
2018-06-05T14:53:00.160Z,28.30
2018-06-05T14:55:28.396Z,28.30
2018-06-05T15:00:24.515Z,28.20
2018-06-05T15:02:52.792Z,28.20
2018-06-05T15:05:21.088Z,28.20
2018-06-05T15:07:49.328Z,28.20
2018-06-05T15:10:17.615Z,28.10
2018-06-05T15:12:46.071Z,28.10
2018-06-05T15:15:14.381Z,28.00
2018-06-05T15:17:42.663Z,28.00
2018-06-05T15:20:10.924Z,27.90
2018-06-05T15:22:39.248Z,27.90
2018-06-05T15:25:07.530Z,27.90
2018-06-05T15:27:35.825Z,27.90
2018-06-05T15:30:04.739Z,27.90
2018-06-05T15:32:33.110Z,27.90
2018-06-05T15:35:01.527Z,27.90
2018-06-05T15:37:29.907Z,27.90
2018-06-05T15:39:58.200Z,27.80
2018-06-05T15:42:26.482Z,27.80
2018-06-05T15:44:54.803Z,27.80
2018-06-05T15:47:23.042Z,27.80
2018-06-05T15:49:51.458Z,27.90
2018-06-05T15:52:19.717Z,27.90
2018-06-05T15:54:48.030Z,27.90
2018-06-05T15:57:16.474Z,27.90
2018-06-05T15:59:45.382Z,27.80
2018-06-05T16:02:14.718Z,27.80
2018-06-05T16:04:43.860Z,27.80
2018-06-05T16:07:12.741Z,27.80
2018-06-05T16:12:09.853Z,27.80
2018-06-05T16:14:38.790Z,27.80
2018-06-05T16:17:07.733Z,27.80
2018-06-05T16:19:36.930Z,27.80
2018-06-05T16:22:05.968Z,27.80
2018-06-05T16:24:35.255Z,27.70
2018-06-05T16:27:03.678Z,27.80
2018-06-05T16:29:31.971Z,27.80
2018-06-05T16:32:00.259Z,27.70
2018-06-05T16:34:28.505Z,27.70
2018-06-05T16:36:56.732Z,27.60
2018-06-05T16:41:52.967Z,27.60
2018-06-05T16:44:21.264Z,27.60
2018-06-05T16:46:49.520Z,27.60
2018-06-05T16:49:17.796Z,27.60
2018-06-05T16:51:46.050Z,27.60
2018-06-05T16:54:14.437Z,27.60
2018-06-05T16:56:43.128Z,27.70
2018-06-05T16:59:12.126Z,27.60
2018-06-05T17:01:41.104Z,27.60
2018-06-05T17:04:09.941Z,27.50
2018-06-05T17:06:38.302Z,27.50
2018-06-05T17:09:07.750Z,27.50
2018-06-05T17:11:36.628Z,27.50
2018-06-05T17:14:05.748Z,27.50
2018-06-05T17:16:34.143Z,27.40
2018-06-05T17:19:02.464Z,27.30
2018-06-05T17:21:30.753Z,27.30
2018-06-05T17:23:59.010Z,27.30
2018-06-05T17:26:27.241Z,27.30
2018-06-05T17:28:55.495Z,27.30
2018-06-05T17:31:23.753Z,27.20
2018-06-05T17:33:52.012Z,27.20
2018-06-05T17:36:20.264Z,27.10
2018-06-05T17:38:48.542Z,27.10
2018-06-05T17:41:16.798Z,27.00
2018-06-05T17:43:45.052Z,27.00
2018-06-05T17:46:13.302Z,27.00
2018-06-05T17:48:41.560Z,26.90
2018-06-05T17:51:09.831Z,26.90
2018-06-05T17:53:38.141Z,26.90
2018-06-05T17:56:06.371Z,26.90
2018-06-05T17:58:34.639Z,26.90
2018-06-05T18:01:02.912Z,26.80
2018-06-05T18:03:31.148Z,26.80
2018-06-05T18:05:59.971Z,26.80
2018-06-05T18:08:28.208Z,26.80
2018-06-05T18:10:56.556Z,26.80
2018-06-05T18:13:24.811Z,26.80
2018-06-05T18:15:53.079Z,26.70
2018-06-05T18:18:21.340Z,26.80
2018-06-05T18:20:49.660Z,26.80
2018-06-05T18:23:17.953Z,26.80
2018-06-05T18:25:46.239Z,26.80
2018-06-05T18:28:14.564Z,26.70
2018-06-05T18:30:42.988Z,26.70
2018-06-05T18:33:11.299Z,26.80
2018-06-05T18:35:39.625Z,26.70
2018-06-05T18:38:07.907Z,26.70
2018-06-05T18:43:04.391Z,26.70
2018-06-05T18:45:32.731Z,26.70
2018-06-05T18:48:01.058Z,26.70
2018-06-05T18:50:29.362Z,26.60
2018-06-05T18:52:57.661Z,26.60
2018-06-05T18:55:26.102Z,26.60
2018-06-05T18:57:55.358Z,26.60
2018-06-05T19:00:24.499Z,26.60
2018-06-05T19:02:52.947Z,26.50
2018-06-05T19:05:21.345Z,26.50
2018-06-05T19:07:49.659Z,26.50
2018-06-05T19:10:18.153Z,26.40
2018-06-05T19:12:46.435Z,26.40
2018-06-05T19:15:14.776Z,26.40
2018-06-05T19:17:43.092Z,26.20
2018-06-05T19:20:11.403Z,26.20
2018-06-05T19:22:39.716Z,26.20
2018-06-05T19:25:08.049Z,26.10
2018-06-05T19:27:36.335Z,26.00
2018-06-05T19:30:04.745Z,26.00
2018-06-05T19:32:33.033Z,25.90
2018-06-05T19:35:01.383Z,25.90
2018-06-05T19:37:29.653Z,25.80
2018-06-05T19:39:58.059Z,25.70
2018-06-05T19:42:26.299Z,25.70
2018-06-05T19:44:54.566Z,25.60
2018-06-05T19:47:29.275Z,25.50
2018-06-05T19:49:59.336Z,25.50
2018-06-05T19:52:27.760Z,25.40
2018-06-05T19:54:57.028Z,25.20
2018-06-05T19:57:26.396Z,25.10
2018-06-05T19:59:56.564Z,25.00
2018-06-05T20:02:25.029Z,24.90
2018-06-05T20:04:54.142Z,24.90
2018-06-05T20:07:26.470Z,24.80
2018-06-05T20:09:54.974Z,24.80
2018-06-05T20:14:51.197Z,24.70
2018-06-05T20:17:19.464Z,24.60
2018-06-05T20:19:48.172Z,24.60
2018-06-05T20:22:16.377Z,24.50
2018-06-05T20:24:44.652Z,24.40
2018-06-05T20:27:12.897Z,24.40
2018-06-05T20:29:41.181Z,24.30
2018-06-05T20:32:09.444Z,24.30
2018-06-05T20:34:37.699Z,24.30
2018-06-05T20:37:05.963Z,24.20
2018-06-05T20:39:34.286Z,24.20
2018-06-05T20:42:02.541Z,24.20
2018-06-05T20:44:30.788Z,24.20
2018-06-05T20:46:59.046Z,24.20
2018-06-05T20:49:27.291Z,24.20
2018-06-05T20:51:55.605Z,24.20
2018-06-05T20:54:23.802Z,24.10
2018-06-05T20:56:52.756Z,24.10
2018-06-05T21:01:50.458Z,24.10
2018-06-05T21:04:19.291Z,24.00
2018-06-05T21:06:48.369Z,24.00
2018-06-05T21:09:16.719Z,23.90
2018-06-05T21:11:45.038Z,23.90
2018-06-05T21:14:13.240Z,23.90
2018-06-05T21:16:41.503Z,23.80
2018-06-05T21:19:09.797Z,23.70
2018-06-05T21:21:38.038Z,23.70
2018-06-05T21:24:06.322Z,23.60
2018-06-05T21:26:34.607Z,23.60
2018-06-05T21:29:02.972Z,23.50
2018-06-05T21:31:31.356Z,23.40
2018-06-05T21:33:59.600Z,23.30
2018-06-05T21:36:27.846Z,23.20
2018-06-05T21:38:56.078Z,23.20
2018-06-05T21:41:24.325Z,23.10
2018-06-05T21:43:52.560Z,23.10
2018-06-05T21:46:20.839Z,23.00
2018-06-05T21:48:49.088Z,23.00
2018-06-05T21:51:17.355Z,22.90
2018-06-05T21:56:13.492Z,22.80
2018-06-05T22:01:09.683Z,22.70
2018-06-05T22:03:37.928Z,22.70
2018-06-05T22:06:06.204Z,22.70
2018-06-05T22:11:02.353Z,22.60
2018-06-05T22:13:30.581Z,22.70
2018-06-05T22:15:58.838Z,22.60
2018-06-05T22:18:27.076Z,22.60
2018-06-05T22:20:55.352Z,22.50
2018-06-05T22:23:23.696Z,22.40
2018-06-05T22:25:52.381Z,22.40
2018-06-05T22:28:20.607Z,22.40
2018-06-05T22:30:49.061Z,22.30
2018-06-05T22:33:17.301Z,22.30
2018-06-05T22:35:45.601Z,22.30
2018-06-05T22:38:13.800Z,22.20
2018-06-05T22:40:42.053Z,22.20
2018-06-05T22:43:10.286Z,22.20
2018-06-05T22:45:38.560Z,22.20
2018-06-05T22:48:06.808Z,22.10
2018-06-05T22:50:35.066Z,22.10
2018-06-05T22:53:03.329Z,22.10
2018-06-05T22:55:31.555Z,22.10
2018-06-05T22:58:00.331Z,22.10
2018-06-05T23:00:32.392Z,22.00
2018-06-05T23:03:01.560Z,22.00
2018-06-05T23:05:30.918Z,22.00
2018-06-05T23:07:59.201Z,22.00
2018-06-05T23:10:27.489Z,22.00
2018-06-05T23:12:55.756Z,22.00
2018-06-05T23:15:24.621Z,22.00
2018-06-05T23:17:53.488Z,21.90
2018-06-05T23:20:21.729Z,21.90
2018-06-05T23:22:49.971Z,21.90
2018-06-05T23:25:18.204Z,21.80
2018-06-05T23:27:46.461Z,21.80
2018-06-05T23:30:15.720Z,21.80
2018-06-05T23:32:43.979Z,21.80
2018-06-05T23:35:12.214Z,21.80
2018-06-05T23:37:40.505Z,21.80
2018-06-05T23:40:08.755Z,21.80
2018-06-05T23:45:05.097Z,21.70
2018-06-05T23:47:33.479Z,21.70
2018-06-05T23:50:01.723Z,21.70
2018-06-05T23:52:30.003Z,21.60
2018-06-05T23:54:58.254Z,21.60
2018-06-05T23:57:26.503Z,21.60
2018-06-05T23:59:54.770Z,21.50
